Meridian Lake, Colorado
Current Conditions -  °F | °C
As of 6:53 AM on Thursday 23 Oct 2014 (Local Time) from KASE Reporting Station
Clear Clear  
Wind Chill: 26°   Ceiling: Unl
Heat Index: 32°   Visibility: 10mi
Dew Point: 27°   Wind: 7mph
Humidity: 82%   Direction: 210°SSW
Pressure: 30.33"   Gusts: NA
Location:  38.8977°N, 106.967°W
Report Text: KASE 231253Z 21006KT 10SM CLR 00/M03 A3033 RMK AO2 SLP230 T00001028
Loading
Personal Weather Stations






























Interactive Weather Map
Tropical Storm Tracking
New forecast layout! Learn more

10-Day Weather Forecast

Advertisements
Track Severe Weather on mobile